Time;durP1;ratioP1;P1;durP2;ratioP2;P2;SDS_P1;SDS_P2;PMS_P1;PMS_P2;Temp;Humidity;BMP_temperature;BMP_pressure;BME280_temperature;BME280_humidity;BME280_pressure;Samples;Min_cycle;Max_cycle;Signal;HPM_P1;HPM_P2
2023/02/26 00:01:48;;;;;;;2.10;1.50;;;4.40;58.20;;;-0.76;86.43;94706.97;4950528;28;20023;-48
2023/02/26 00:04:14;;;;;;;4.00;1.70;;;4.40;58.20;;;-0.70;86.19;94702.69;4951204;28;20042;-49
2023/02/26 00:06:51;;;;;;;2.00;1.40;;;4.50;58.20;;;-0.67;85.06;94710.09;4951567;28;20444;-48
2023/02/26 00:09:18;;;;;;;9.63;1.92;;;4.50;58.20;;;-0.64;84.23;94706.25;4951384;28;20088;-49
2023/02/26 00:11:45;;;;;;;7.72;2.55;;;4.50;58.10;;;-0.65;84.06;94709.91;4954219;28;20046;-48
2023/02/26 00:14:15;;;;;;;5.18;1.85;;;4.50;58.10;;;-0.65;82.92;94705.47;4945424;28;20122;-54
2023/02/26 00:17:08;;;;;;;4.15;1.90;;;4.50;58.00;;;-0.71;81.29;94707.13;4944124;28;20058;-48
2023/02/26 00:19:40;;;;;;;2.25;1.55;;;4.50;57.90;;;-0.73;80.99;94703.13;4949562;28;20073;-48
2023/02/26 00:22:06;;;;;;;2.80;1.70;;;4.50;57.80;;;-0.74;81.27;94706.75;4959966;28;20050;-49
2023/02/26 00:24:35;;;;;;;3.50;1.52;;;4.50;57.80;;;-0.74;80.72;94712.00;4941594;28;20026;-50
2023/02/26 00:27:01;;;;;;;4.10;1.80;;;4.40;57.60;;;-0.75;82.22;94711.19;4950585;28;20481;-54
2023/02/26 00:29:31;;;;;;;4.75;1.60;;;4.40;57.60;;;-0.76;81.17;94701.72;4950770;28;20098;-49
2023/02/26 00:32:00;;;;;;;2.47;1.63;;;4.50;57.60;;;-0.79;81.30;94707.38;4941029;28;20031;-48
2023/02/26 00:34:32;;;;;;;3.88;2.05;;;4.40;57.50;;;-0.85;79.79;94707.44;4948825;28;20038;-51
2023/02/26 00:37:34;;;;;;;3.45;1.70;;;4.40;57.50;;;-0.82;80.51;94707.03;4934850;28;20091;-52
2023/02/26 00:40:46;;;;;;;3.67;1.90;;;4.40;57.40;;;-0.81;80.26;94714.66;4959481;28;20034;-49
2023/02/26 00:43:36;;;;;;;2.97;1.67;;;4.40;57.40;;;-0.77;80.83;94717.66;4965003;28;20385;-51
2023/02/26 00:46:36;;;;;;;1.83;1.30;;;4.30;57.40;;;-0.80;81.19;94718.88;4962885;28;20073;-53
2023/02/26 00:49:20;;;;;;;4.03;1.70;;;4.30;57.40;;;-0.86;80.61;94724.16;4943100;28;20613;-50
2023/02/26 00:52:01;;;;;;;2.17;1.50;;;4.30;57.40;;;-0.83;81.01;94723.72;4951428;28;20671;-50
2023/02/26 00:54:30;;;;;;;2.42;1.50;;;4.30;57.30;;;-0.90;79.91;94729.03;4951368;28;20478;-52
2023/02/26 00:56:58;;;;;;;3.00;1.50;;;4.40;57.30;;;-0.89;79.65;94722.78;4950636;28;20030;-52
2023/02/26 00:59:25;;;;;;;2.33;1.45;;;4.30;57.20;;;-0.91;80.22;94722.16;4950170;28;20076;-50
2023/02/26 01:01:52;;;;;;;3.30;1.75;;;4.30;57.20;;;-0.94;80.25;94722.59;4949607;28;21068;-49
2023/02/26 01:04:23;;;;;;;2.28;1.40;;;4.30;57.20;;;-0.88;80.65;94726.19;4939080;28;20788;-49
2023/02/26 01:06:57;;;;;;;6.90;1.63;;;4.30;57.20;;;-0.92;81.23;94717.97;4951052;28;20528;-50
2023/02/26 01:09:36;;;;;;;3.45;1.42;;;4.30;57.20;;;-0.83;80.56;94715.88;4951578;28;20050;-50
2023/02/26 01:12:12;;;;;;;2.45;1.50;;;4.30;57.20;;;-0.90;80.82;94715.16;4931181;29;20057;-49
2023/02/26 01:14:41;;;;;;;2.67;1.52;;;4.30;57.20;;;-0.83;80.87;94715.88;4938713;28;20138;-48
2023/02/26 01:17:57;;;;;;;5.07;1.92;;;4.30;57.20;;;-0.87;81.14;94710.28;4949974;29;20478;-49
2023/02/26 01:21:01;;;;;;;3.92;1.83;;;4.30;57.20;;;-0.83;81.10;94711.44;4953969;28;20064;-49
2023/02/26 01:23:40;;;;;;;2.20;1.67;;;4.30;57.20;;;-0.87;81.67;94709.50;4945379;28;20022;-50
2023/02/26 01:26:28;;;;;;;4.60;1.55;;;4.30;57.20;;;-0.89;82.86;94711.50;4962064;28;20501;-52
2023/02/26 01:28:55;;;;;;;4.15;1.90;;;4.30;57.20;;;-0.91;84.36;94703.06;4969303;28;20432;-50
2023/02/26 01:32:11;;;;;;;3.38;1.48;;;4.30;57.20;;;-0.88;85.14;94697.41;4955792;28;20080;-49
2023/02/26 01:35:01;;;;;;;3.08;2.00;;;4.30;57.30;;;-0.97;87.14;94695.09;4949031;28;20629;-53
2023/02/26 01:38:17;;;;;;;2.33;1.80;;;4.30;57.40;;;-1.01;87.99;94693.91;4962964;28;20054;-53
2023/02/26 01:41:41;;;;;;;3.03;1.70;;;4.30;57.50;;;-1.16;88.82;94696.03;4947436;28;20026;-53
2023/02/26 01:44:07;;;;;;;3.00;1.83;;;4.20;57.50;;;-1.21;89.71;94709.75;4953722;28;20034;-53
2023/02/26 01:47:30;;;;;;;3.63;1.63;;;4.20;57.50;;;-1.24;89.92;94709.38;4962814;28;20050;-51
2023/02/26 01:49:57;;;;;;;5.22;1.95;;;4.10;57.60;;;-1.21;90.30;94708.94;4959534;28;20030;-49
2023/02/26 01:52:48;;;;;;;3.83;2.10;;;4.10;57.70;;;-1.20;90.60;94719.19;4952494;28;20426;-49
2023/02/26 01:55:25;;;;;;;2.70;2.20;;;4.10;57.90;;;-1.21;90.71;94711.56;4950554;28;20054;-49
2023/02/26 01:57:59;;;;;;;3.17;2.00;;;4.10;57.90;;;-1.25;91.06;94711.19;4943054;28;20058;-49
2023/02/26 02:00:31;;;;;;;5.93;1.85;;;4.10;58.00;;;-1.31;91.00;94719.88;4937323;28;20038;-51
2023/02/26 02:02:57;;;;;;;7.32;2.55;;;4.10;58.10;;;-1.35;90.94;94707.44;4953239;28;20073;-49
2023/02/26 02:05:52;;;;;;;7.90;2.30;;;4.00;58.00;;;-1.34;92.14;94712.47;4945279;28;20393;-50
2023/02/26 02:08:20;;;;;;;5.82;2.33;;;4.10;58.10;;;-1.24;92.28;94706.75;4969148;28;20354;-49
2023/02/26 02:10:56;;;;;;;3.47;2.28;;;4.00;58.10;;;-1.24;92.36;94706.75;4968288;28;20060;-49
2023/02/26 02:13:51;;;;;;;4.63;2.30;;;4.00;58.30;;;-1.20;92.29;94710.53;4949911;28;20029;-52
2023/02/26 02:16:34;;;;;;;3.08;2.10;;;4.00;58.40;;;-1.30;93.33;94708.41;4948693;28;20121;-48
2023/02/26 02:20:05;;;;;;;9.02;2.40;;;4.00;58.40;;;-1.33;93.27;94700.97;4965449;28;20042;-51
2023/02/26 02:23:14;;;;;;;4.35;2.20;;;4.00;58.50;;;-1.27;93.74;94710.59;4935873;28;20092;-50
2023/02/26 02:26:16;;;;;;;5.20;2.55;;;4.00;58.60;;;-1.22;93.01;94704.75;4947286;28;20408;-50
2023/02/26 02:29:32;;;;;;;3.58;2.33;;;3.90;58.70;;;-1.27;88.70;94704.56;4932396;28;20031;-53
2023/02/26 02:33:02;;;;;;;3.25;2.10;;;3.90;58.60;;;-1.22;88.74;94716.00;4949617;28;20038;-49
2023/02/26 02:35:51;;;;;;;3.22;2.28;;;3.90;58.60;;;-1.32;82.52;94712.22;4927512;28;20046;-50
2023/02/26 02:38:40;;;;;;;3.25;1.90;;;3.90;58.50;;;-1.38;75.20;94715.69;4937435;28;20019;-48
2023/02/26 02:41:24;;;;;;;2.60;1.70;;;4.00;58.30;;;-1.38;75.51;94711.25;4967163;28;20117;-49
2023/02/26 02:44:00;;;;;;;3.08;1.60;;;3.90;57.90;;;-1.44;72.97;94712.94;4965858;28;20536;-49
2023/02/26 02:46:39;;;;;;;2.67;1.75;;;3.90;57.60;;;-1.42;75.17;94707.47;4966722;28;20046;-51
2023/02/26 02:49:26;;;;;;;4.40;1.63;;;3.90;57.50;;;-1.52;72.62;94718.41;4967438;28;20035;-49
2023/02/26 02:52:14;;;;;;;3.20;1.83;;;3.80;57.20;;;-1.58;72.92;94715.81;4967348;28;20047;-48
2023/02/26 02:55:12;;;;;;;3.25;1.85;;;3.80;57.00;;;-1.56;74.29;94714.59;4965800;28;20169;-49
2023/02/26 02:58:28;;;;;;;6.32;1.65;;;3.80;56.90;;;-1.58;74.64;94715.81;4952553;28;20027;-50
2023/02/26 03:01:13;;;;;;;4.47;1.75;;;3.80;56.80;;;-1.57;74.00;94714.81;4942897;28;20759;-48
2023/02/26 03:04:10;;;;;;;2.10;1.60;;;3.80;56.80;;;-1.64;72.93;94726.09;4968285;28;20026;-49
2023/02/26 03:06:45;;;;;;;3.00;1.50;;;3.70;56.50;;;-1.68;74.30;94716.28;4949416;28;20058;-50
2023/02/26 03:09:14;;;;;;;3.58;1.77;;;3.70;57.10;;;-1.67;73.32;94725.72;4952256;28;20033;-48
2023/02/26 03:11:41;;;;;;;4.00;1.63;;;3.60;56.40;;;-1.63;73.26;94727.72;4946635;28;20022;-48
2023/02/26 03:14:09;;;;;;;3.97;1.83;;;3.70;56.40;;;-1.69;73.36;94722.53;4958852;28;20031;-50
2023/02/26 03:17:28;;;;;;;2.45;1.33;;;3.60;56.20;;;-1.67;74.46;94729.13;4959056;28;20570;-49
2023/02/26 03:20:20;;;;;;;3.85;1.80;;;3.60;56.20;;;-1.70;73.71;94728.72;4965338;28;20035;-51
2023/02/26 03:23:26;;;;;;;3.08;1.60;;;3.60;56.20;;;-1.69;74.06;94732.97;4946604;28;20026;-49
2023/02/26 03:26:38;;;;;;;1.48;1.10;;;3.60;56.20;;;-1.74;73.44;94722.34;4950677;28;20037;-50
2023/02/26 03:29:45;;;;;;;2.85;1.50;;;3.60;56.20;;;-1.76;73.97;94725.13;4927171;28;20126;-53
2023/02/26 03:33:02;;;;;;;3.00;1.35;;;3.50;56.20;;;-1.73;74.28;94729.94;4951481;28;20038;-52
2023/02/26 03:35:48;;;;;;;5.57;1.75;;;3.50;56.10;;;-1.93;74.77;94718.81;4942122;28;20031;-51
2023/02/26 03:38:46;;;;;;;1.88;1.42;;;3.50;56.10;;;-2.03;74.52;94721.88;4966620;28;20026;-49
2023/02/26 03:41:57;;;;;;;2.13;1.33;;;3.40;56.00;;;-2.02;75.06;94730.50;4963983;28;20121;-49
2023/02/26 03:44:35;;;;;;;3.08;1.50;;;3.50;55.90;;;-2.00;76.08;94729.28;4930088;28;20027;-49
2023/02/26 03:47:11;;;;;;;2.38;1.35;;;3.40;55.90;;;-2.00;76.16;94729.28;4957516;28;20031;-50
2023/02/26 03:50:08;;;;;;;3.00;1.48;;;3.30;55.90;;;-2.09;76.02;94727.91;4966548;28;20022;-49
2023/02/26 03:52:43;;;;;;;4.40;1.50;;;3.30;55.90;;;-2.10;76.40;94732.34;4950568;28;20509;-51
2023/02/26 03:55:25;;;;;;;3.00;1.60;;;3.30;55.90;;;-2.11;78.68;94729.91;4966204;28;20294;-51
2023/02/26 03:57:52;;;;;;;4.50;1.60;;;3.30;56.00;;;-2.12;79.34;94734.34;4949699;28;20452;-49
2023/02/26 04:00:20;;;;;;;2.35;1.55;;;3.20;56.00;;;-2.14;78.90;94743.38;4960397;28;20165;-52
2023/02/26 04:03:20;;;;;;;2.10;1.63;;;3.20;56.00;;;-2.20;80.02;94752.81;4948533;28;20397;-52
2023/02/26 04:05:51;;;;;;;4.80;1.65;;;3.20;56.00;;;-2.23;80.42;94753.22;4944587;28;20070;-53
2023/02/26 04:08:21;;;;;;;4.10;1.63;;;3.20;56.10;;;-2.24;80.60;94754.25;4948523;28;20030;-49
2023/02/26 04:11:05;;;;;;;2.63;1.30;;;3.20;56.20;;;-2.24;82.86;94753.44;4962548;28;20097;-49
2023/02/26 04:13:34;;;;;;;2.97;1.70;;;3.20;56.20;;;-2.19;81.77;94762.28;4946162;28;20026;-51
2023/02/26 04:16:00;;;;;;;2.10;1.40;;;3.10;56.30;;;-2.19;82.63;94758.88;4933309;28;20048;-53
2023/02/26 04:18:29;;;;;;;3.72;1.50;;;3.10;56.40;;;-2.16;82.93;94754.03;4948547;28;20031;-51
2023/02/26 04:20:55;;;;;;;4.95;1.48;;;3.20;56.50;;;-2.19;83.54;94748.44;4949154;28;20053;-55
2023/02/26 04:23:27;;;;;;;2.70;1.73;;;3.10;56.50;;;-2.19;84.57;94759.66;4949138;28;20026;-53
2023/02/26 04:25:59;;;;;;;4.47;1.70;;;3.10;56.60;;;-2.23;84.41;94753.22;4937983;28;20023;-54
2023/02/26 04:28:31;;;;;;;2.40;1.80;;;3.10;56.70;;;-2.29;85.11;94748.03;4949851;28;20031;-53
2023/02/26 04:30:56;;;;;;;4.18;1.85;;;3.10;56.80;;;-2.37;85.20;94742.03;4950002;28;20061;-52
2023/02/26 04:33:26;;;;;;;2.15;1.60;;;3.10;56.80;;;-2.43;85.69;94750.69;4949296;28;20050;-55
2023/02/26 04:35:59;;;;;;;5.35;1.67;;;3.00;56.80;;;-2.41;86.16;94750.50;4942351;28;20421;-53
2023/02/26 04:38:31;;;;;;;3.00;1.80;;;3.00;56.90;;;-2.44;87.16;94759.53;4949762;28;20025;-54
2023/02/26 04:40:57;;;;;;;2.42;1.73;;;3.00;57.00;;;-2.44;87.10;94750.91;4947499;28;20027;-54
2023/02/26 04:43:32;;;;;;;1.83;1.63;;;3.00;57.10;;;-2.44;87.22;94762.13;4949271;28;20034;-53
2023/02/26 04:45:59;;;;;;;4.63;1.83;;;2.90;57.10;;;-2.39;86.35;94759.69;4946171;28;20034;-52
2023/02/26 04:48:33;;;;;;;1.67;1.45;;;2.90;57.20;;;-2.35;86.31;94765.28;4948710;28;20033;-49
2023/02/26 04:50:59;;;;;;;2.67;1.38;;;2.90;57.30;;;-2.34;85.69;94764.31;4948691;28;20018;-53
2023/02/26 04:53:25;;;;;;;4.80;1.52;;;2.90;57.30;;;-2.32;85.98;94770.09;4948368;28;20027;-52
2023/02/26 04:55:51;;;;;;;2.60;1.60;;;3.00;57.40;;;-2.36;86.43;94763.72;4935044;28;20478;-49
2023/02/26 04:58:20;;;;;;;2.40;1.63;;;2.90;57.40;;;-2.33;85.63;94764.09;4931381;28;20041;-50
2023/02/26 05:00:53;;;;;;;3.50;1.50;;;2.90;57.40;;;-2.33;85.77;94774.53;4949216;28;20054;-51
2023/02/26 05:03:22;;;;;;;2.97;1.80;;;3.00;57.50;;;-2.29;85.26;94772.31;4948361;28;20031;-53
2023/02/26 05:05:48;;;;;;;1.88;1.52;;;3.00;57.50;;;-2.42;85.08;94775.75;4947636;29;20019;-50
2023/02/26 05:08:17;;;;;;;4.60;1.65;;;3.00;57.50;;;-2.42;86.56;94777.56;4949164;29;20030;-52
2023/02/26 05:10:44;;;;;;;2.55;1.77;;;3.00;57.50;;;-2.45;85.73;94775.34;4948478;28;20027;-50
2023/02/26 05:13:20;;;;;;;3.03;1.75;;;3.00;57.50;;;-2.38;86.66;94770.94;4950759;28;20023;-55
2023/02/26 05:15:46;;;;;;;3.42;1.90;;;2.90;57.50;;;-2.43;86.97;94774.16;4948815;29;20125;-52
2023/02/26 05:18:12;;;;;;;4.07;1.90;;;3.00;57.60;;;-2.43;85.16;94776.75;4951747;28;20492;-50
2023/02/26 05:20:41;;;;;;;2.75;1.70;;;3.00;57.60;;;-2.44;83.21;94777.78;4952473;28;20027;-54
2023/02/26 05:23:07;;;;;;;3.88;1.77;;;3.00;57.60;;;-2.40;83.99;94775.56;4951450;28;20405;-52
2023/02/26 05:25:33;;;;;;;1.98;1.40;;;2.90;57.50;;;-2.38;84.20;94774.34;4955830;28;20022;-54
2023/02/26 05:28:04;;;;;;;1.85;1.50;;;3.00;57.50;;;-2.32;85.03;94772.72;4962536;28;20022;-55
2023/02/26 05:30:30;;;;;;;2.88;1.60;;;3.00;57.50;;;-2.40;83.87;94781.56;4952342;28;20439;-53
2023/02/26 05:32:56;;;;;;;4.82;1.50;;;3.00;57.50;;;-2.43;82.34;94771.53;4952579;28;20058;-53
2023/02/26 05:35:25;;;;;;;4.40;1.75;;;2.90;57.50;;;-2.43;82.45;94776.75;4948878;28;20027;-54
2023/02/26 05:37:53;;;;;;;4.32;1.30;;;2.90;57.40;;;-2.51;80.97;94792.63;4945756;28;20026;-50
2023/02/26 05:40:23;;;;;;;3.30;1.90;;;2.90;57.40;;;-2.44;81.06;94782.19;4954196;28;20023;-50
2023/02/26 05:42:52;;;;;;;3.15;1.50;;;2.90;57.40;;;-2.41;81.62;94787.00;4953683;28;20265;-50
2023/02/26 05:45:29;;;;;;;4.78;1.63;;;2.90;57.30;;;-2.41;82.39;94789.63;4953537;28;20023;-50
2023/02/26 05:48:02;;;;;;;2.25;1.58;;;2.90;57.30;;;-2.45;80.82;94781.38;4954541;28;20023;-53
2023/02/26 05:50:30;;;;;;;2.67;1.80;;;2.90;57.30;;;-2.48;80.74;94792.22;4933239;28;20035;-50
2023/02/26 05:52:56;;;;;;;3.58;1.35;;;3.00;57.30;;;-2.48;79.12;94787.00;4928443;28;20086;-48
2023/02/26 05:55:22;;;;;;;5.00;1.60;;;2.90;57.20;;;-2.52;76.84;94780.59;4953270;28;20034;-54
2023/02/26 05:58:00;;;;;;;2.65;1.10;;;2.90;57.10;;;-2.65;75.58;94797.03;4952046;28;20118;-50
2023/02/26 06:00:29;;;;;;;4.40;1.88;;;2.90;56.80;;;-2.63;76.13;94792.44;4952308;28;20026;-49
2023/02/26 06:02:56;;;;;;;2.47;1.40;;;2.80;56.60;;;-2.65;75.17;94801.47;4951423;28;20516;-52
2023/02/26 06:05:21;;;;;;;3.85;1.50;;;2.80;56.60;;;-2.68;75.16;94796.66;4950799;28;20035;-51
2023/02/26 06:07:47;;;;;;;2.50;1.45;;;2.70;56.40;;;-2.75;74.76;94795.88;4958273;28;20492;-51
2023/02/26 06:10:20;;;;;;;1.83;1.38;;;2.70;56.40;;;-2.77;74.30;94808.28;4957816;28;20060;-53
2023/02/26 06:12:48;;;;;;;1.63;1.13;;;2.70;56.20;;;-2.80;75.14;94801.66;4953103;28;20538;-49
2023/02/26 06:15:14;;;;;;;2.17;1.23;;;2.60;56.20;;;-2.87;75.56;94809.47;4951921;28;20081;-49
2023/02/26 06:17:43;;;;;;;2.72;1.23;;;2.60;56.20;;;-2.91;75.90;94808.28;4934329;28;20054;-50
2023/02/26 06:20:11;;;;;;;2.95;1.40;;;2.60;56.10;;;-2.90;76.13;94811.69;4951788;28;20113;-50
2023/02/26 06:22:40;;;;;;;2.40;1.70;;;2.50;56.00;;;-2.94;75.85;94820.91;4967406;28;20018;-53
2023/02/26 06:25:12;;;;;;;4.80;1.50;;;2.50;56.00;;;-2.98;75.63;94817.88;4951257;28;20050;-49
2023/02/26 06:27:38;;;;;;;3.50;1.30;;;2.40;55.90;;;-3.08;73.80;94814.88;4951217;28;20030;-50
2023/02/26 06:30:05;;;;;;;2.78;1.33;;;2.40;55.90;;;-3.11;75.32;94830.91;4950211;28;20035;-48
2023/02/26 06:32:34;;;;;;;3.13;1.30;;;2.40;55.90;;;-3.09;76.13;94829.69;4952635;28;20031;-48
2023/02/26 06:35:00;;;;;;;3.05;1.40;;;2.30;55.80;;;-3.19;76.15;94844.94;4950952;28;20042;-51
2023/02/26 06:37:28;;;;;;;3.17;1.23;;;2.30;55.80;;;-3.19;76.62;94846.72;4959069;28;20488;-49
2023/02/26 06:39:54;;;;;;;3.53;1.38;;;2.30;55.80;;;-3.18;78.28;94843.13;4986926;28;20026;-48
2023/02/26 06:42:21;;;;;;;2.63;1.48;;;2.30;55.90;;;-3.17;78.26;94842.09;4952619;28;20321;-48
2023/02/26 06:44:47;;;;;;;1.73;1.15;;;2.40;55.90;;;-3.18;78.91;94840.50;4964165;28;20018;-50
2023/02/26 06:47:13;;;;;;;2.35;1.42;;;2.40;55.90;;;-3.18;79.35;94840.50;4965773;28;20041;-52
2023/02/26 06:49:42;;;;;;;3.97;1.25;;;2.40;55.90;;;-3.19;77.75;94834.50;4950794;28;20446;-49
2023/02/26 06:52:07;;;;;;;3.67;1.63;;;2.40;55.90;;;-3.15;78.29;94840.13;4967300;28;20027;-49
2023/02/26 06:54:43;;;;;;;2.88;1.48;;;2.40;55.80;;;-3.08;78.25;94841.72;4951701;28;20034;-48
2023/02/26 06:57:08;;;;;;;1.80;1.55;;;2.50;55.80;;;-2.99;78.78;94831.91;4942624;28;20023;-51
2023/02/26 06:59:34;;;;;;;3.72;1.60;;;2.60;55.90;;;-3.03;77.65;94841.16;4928552;29;20211;-52
2023/02/26 07:02:00;;;;;;;4.43;1.45;;;2.60;55.80;;;-2.93;77.41;94851.19;4942962;28;20390;-53
2023/02/26 07:04:28;;;;;;;2.78;1.80;;;2.60;55.70;;;-2.82;76.76;94843.59;4965778;28;20038;-52
2023/02/26 07:06:54;;;;;;;2.35;1.20;;;2.70;55.70;;;-2.77;77.03;94850.78;4953710;28;20027;-48
2023/02/26 07:09:20;;;;;;;4.40;1.63;;;2.80;55.60;;;-2.76;75.96;94849.78;4955334;28;20037;-51
2023/02/26 07:11:46;;;;;;;5.70;1.50;;;2.90;55.50;;;-2.76;76.54;94846.38;4954729;28;20029;-49
2023/02/26 07:14:12;;;;;;;3.17;1.38;;;2.90;55.40;;;-2.78;77.08;94851.00;4956324;28;20038;-53
2023/02/26 07:16:37;;;;;;;1.75;1.38;;;2.90;55.30;;;-2.89;75.56;94852.38;4958741;28;20043;-50
2023/02/26 07:19:03;;;;;;;7.72;1.88;;;3.00;55.30;;;-2.85;75.67;94853.59;4935217;28;20679;-48
2023/02/26 07:21:29;;;;;;;4.97;1.33;;;3.00;55.20;;;-2.84;75.46;94839.56;4951897;28;20027;-48
2023/02/26 07:23:55;;;;;;;2.83;1.52;;;3.00;55.10;;;-2.87;75.21;94855.59;4965592;28;20035;-49
2023/02/26 07:26:21;;;;;;;5.45;1.70;;;3.00;55.00;;;-2.87;75.20;94851.19;4951829;28;20109;-49
2023/02/26 07:28:50;;;;;;;2.45;1.27;;;3.00;55.00;;;-2.91;74.50;94846.59;4933716;28;20050;-49
2023/02/26 07:31:16;;;;;;;5.78;1.50;;;3.10;54.90;;;-2.93;75.13;94854.59;4967129;28;20034;-49
2023/02/26 07:33:42;;;;;;;4.13;1.40;;;3.10;54.80;;;-3.07;73.48;94860.75;4935069;28;20470;-51
2023/02/26 07:36:08;;;;;;;2.28;1.27;;;3.10;54.60;;;-3.03;75.19;94856.78;4950802;28;20125;-51
2023/02/26 07:38:37;;;;;;;4.00;1.38;;;3.10;54.50;;;-3.00;74.75;94859.00;4983580;28;20033;-50
2023/02/26 07:41:04;;;;;;;5.63;1.95;;;3.20;54.40;;;-3.13;73.83;94843.34;4962014;28;20026;-50
2023/02/26 07:43:29;;;;;;;4.90;1.42;;;3.20;54.20;;;-3.17;73.55;94858.53;4951091;28;20444;-53
2023/02/26 07:45:55;;;;;;;2.03;1.23;;;3.30;54.00;;;-2.98;74.56;94862.19;4931697;29;20035;-52
2023/02/26 07:48:27;;;;;;;1.42;1.00;;;3.40;53.90;;;-2.89;73.06;94870.63;4948719;28;20065;-48
2023/02/26 07:50:54;;;;;;;5.80;1.80;;;3.50;53.60;;;-2.97;71.75;94866.41;4950807;28;20419;-54
2023/02/26 07:53:23;;;;;;;2.20;1.27;;;3.70;53.30;;;-3.06;71.33;94878.03;4954775;28;20027;-55
2023/02/26 07:55:49;;;;;;;6.15;1.50;;;3.90;52.80;;;-2.81;71.93;94871.25;4941877;28;20684;-55
2023/02/26 07:58:16;;;;;;;5.65;1.42;;;4.10;52.40;;;-2.62;69.28;94854.00;4948031;28;20057;-51
2023/02/26 08:00:42;;;;;;;1.42;1.08;;;4.40;52.20;;;-2.75;69.67;94867.03;4934316;28;20030;-50
2023/02/26 08:03:11;;;;;;;2.22;0.98;;;4.60;51.60;;;-2.72;69.63;94871.88;4949083;28;20065;-54
2023/02/26 08:05:36;;;;;;;3.78;1.30;;;4.70;51.30;;;-2.26;68.06;94865.03;4947342;28;20054;-54
2023/02/26 08:08:03;;;;;;;2.35;1.20;;;4.90;51.10;;;-2.32;69.09;94874.47;4942403;28;20030;-49
2023/02/26 08:10:38;;;;;;;3.00;1.50;;;5.00;51.00;;;-2.58;68.22;94868.25;4964925;28;20035;-51
2023/02/26 08:13:04;;;;;;;3.05;1.20;;;5.00;50.50;;;-2.76;69.17;94875.84;4947865;28;20045;-50
2023/02/26 08:15:33;;;;;;;4.03;1.05;;;4.90;50.40;;;-2.75;69.64;94864.44;4938699;28;20085;-51
2023/02/26 08:18:01;;;;;;;3.13;1.58;;;4.80;50.20;;;-2.93;70.08;94851.19;4945997;28;20030;-52
2023/02/26 08:20:27;;;;;;;1.77;1.25;;;4.60;50.30;;;-2.93;70.85;94848.56;4946406;28;20363;-49
2023/02/26 08:22:53;;;;;;;4.07;1.20;;;4.40;50.20;;;-2.87;69.00;94853.78;4956310;28;20142;-54
2023/02/26 08:25:19;;;;;;;4.57;1.20;;;4.30;50.40;;;-2.79;69.27;94876.25;4947600;28;20023;-51
2023/02/26 08:27:45;;;;;;;2.45;1.00;;;4.40;50.30;;;-2.75;70.44;94861.03;4947957;28;20035;-50
2023/02/26 08:30:12;;;;;;;3.65;1.25;;;4.50;50.30;;;-2.96;70.04;94873.22;4948423;28;20486;-49
2023/02/26 08:32:40;;;;;;;3.42;1.45;;;4.50;50.20;;;-2.36;69.49;94857.63;4944445;28;20114;-52
2023/02/26 08:35:10;;;;;;;5.22;1.40;;;4.80;50.20;;;-1.99;68.66;94861.38;4946014;28;20030;-51
2023/02/26 08:37:37;;;;;;;3.00;1.30;;;5.20;49.90;;;-1.84;69.33;94860.38;4943684;28;20031;-49
2023/02/26 08:40:08;;;;;;;1.35;1.08;;;5.60;50.40;;;-1.78;68.66;94849.91;4870846;28;33804;-51
2023/02/26 08:42:34;;;;;;;4.40;1.48;;;5.90;49.40;;;-2.00;68.44;94848.56;4938984;28;20026;-49
2023/02/26 08:45:00;;;;;;;2.30;1.20;;;5.90;49.10;;;-1.64;70.07;94859.28;4931182;28;20026;-53
2023/02/26 08:47:26;;;;;;;2.60;1.10;;;6.10;49.00;;;-1.45;69.15;94859.41;4961704;28;20034;-51
2023/02/26 08:49:52;;;;;;;5.65;1.30;;;6.20;49.00;;;-1.60;68.70;94859.66;4948655;28;20117;-51
2023/02/26 08:52:20;;;;;;;1.85;1.02;;;6.20;48.80;;;-1.56;68.29;94862.69;4951713;28;20030;-52
2023/02/26 08:54:46;;;;;;;2.38;1.20;;;6.40;48.60;;;-1.15;68.94;94856.28;4930389;28;20026;-51
2023/02/26 08:57:12;;;;;;;1.55;1.27;;;6.70;48.50;;;-1.00;67.67;94856.81;4946165;28;20077;-52
2023/02/26 08:59:43;;;;;;;1.73;1.02;;;7.00;48.30;;;-0.97;66.91;94865.03;4949853;28;20438;-50
2023/02/26 09:02:14;;;;;;;3.55;1.15;;;7.20;47.80;;;-1.21;66.48;94868.38;4957206;28;20077;-50
2023/02/26 09:04:42;;;;;;;2.92;1.08;;;7.10;47.40;;;-1.26;66.94;94862.94;4949922;28;20394;-51
2023/02/26 09:07:14;;;;;;;2.10;1.02;;;7.20;47.40;;;-1.19;67.33;94875.00;4929703;29;20019;-55
2023/02/26 09:09:40;;;;;;;3.35;1.35;;;7.20;47.20;;;-1.68;66.64;94883.41;4954395;28;20042;-54
2023/02/26 09:12:06;;;;;;;2.42;1.00;;;7.00;46.90;;;-2.02;67.05;94863.59;4928742;29;20023;-54
2023/02/26 09:14:31;;;;;;;2.75;1.30;;;6.70;46.70;;;-2.17;66.97;94864.63;4938420;28;20035;-53
2023/02/26 09:16:57;;;;;;;2.85;1.00;;;6.50;46.60;;;-2.22;68.17;94869.66;4958547;23;20058;-51
2023/02/26 09:19:25;;;;;;;2.17;1.10;;;6.30;46.40;;;-2.26;68.75;94868.44;4954860;28;20645;-51
2023/02/26 09:21:54;;;;;;;4.53;1.30;;;5.90;46.60;;;-2.21;68.14;94884.31;4966717;28;20512;-53
2023/02/26 09:24:23;;;;;;;1.60;1.00;;;5.80;46.90;;;-2.39;66.58;94873.66;4972491;28;20464;-51
2023/02/26 09:26:49;;;;;;;3.25;1.55;;;5.70;47.60;;;-2.46;67.64;94888.53;4944726;28;20026;-49
2023/02/26 09:29:15;;;;;;;4.40;1.20;;;5.40;47.10;;;-2.53;67.63;94895.56;4954578;28;20038;-49
2023/02/26 09:31:41;;;;;;;3.22;1.08;;;5.10;47.20;;;-2.52;67.38;94911.00;4971410;28;20053;-50
2023/02/26 09:34:09;;;;;;;1.95;0.90;;;4.90;47.50;;;-2.47;67.96;94905.19;4967556;28;20085;-52
2023/02/26 09:36:36;;;;;;;1.70;1.13;;;4.80;47.80;;;-2.47;68.44;94908.59;4960874;28;20030;-50
2023/02/26 09:39:02;;;;;;;1.88;0.98;;;4.80;48.00;;;-2.60;66.97;94909.38;4948670;28;20067;-50
2023/02/26 09:41:48;;;;;;;2.30;1.08;;;4.80;48.00;;;-2.57;67.62;94908.16;4942587;28;20123;-51
2023/02/26 09:44:31;;;;;;;1.67;0.98;;;4.80;47.80;;;-2.39;65.88;94908.38;4951982;28;20037;-52
2023/02/26 09:47:38;;;;;;;4.25;1.02;;;4.90;47.80;;;-2.17;65.13;94908.97;4941514;28;20412;-52
2023/02/26 09:50:38;;;;;;;2.33;1.05;;;4.90;47.80;;;-2.48;65.22;94917.41;4952787;28;20046;-53
2023/02/26 09:53:40;;;;;;;1.77;0.95;;;4.80;47.80;;;-2.52;66.71;94928.44;4951766;28;20023;-50
2023/02/26 09:56:26;;;;;;;3.50;0.90;;;4.70;47.80;;;-2.40;65.57;94922.44;4953233;28;20033;-50
2023/02/26 09:58:54;;;;;;;1.95;1.10;;;4.80;47.90;;;-2.42;64.91;94900.94;4933196;29;20558;-50
2023/02/26 10:01:58;;;;;;;1.85;1.00;;;4.90;47.90;;;-2.40;65.95;94919.03;4951701;28;20493;-49
2023/02/26 10:04:51;;;;;;;1.58;1.08;;;5.10;47.60;;;-1.65;65.47;94914.34;4959487;28;20034;-53
2023/02/26 10:07:38;;;;;;;3.60;1.40;;;5.90;47.40;;;-1.16;61.65;94918.19;4951496;28;20022;-49
2023/02/26 10:10:56;;;;;;;1.67;1.00;;;6.60;47.00;;;-0.75;60.31;94903.94;4961282;28;20034;-53
2023/02/26 10:14:00;;;;;;;2.08;1.10;;;7.40;46.40;;;-0.50;60.12;94919.69;4962806;28;20473;-50
2023/02/26 10:16:38;;;;;;;1.38;0.85;;;7.90;45.80;;;-0.53;58.43;94925.34;4979568;28;20026;-49
2023/02/26 10:19:18;;;;;;;1.67;0.90;;;8.40;44.90;;;-0.30;58.99;94914.28;4947004;28;20035;-50
2023/02/26 10:22:41;;;;;;;1.88;1.00;;;8.70;44.30;;;0.16;57.39;94932.25;4937461;28;20030;-49
2023/02/26 10:25:21;;;;;;;3.65;1.25;;;9.10;43.80;;;0.37;56.10;94919.75;4949561;28;20023;-50
2023/02/26 10:28:43;;;;;;;2.25;1.02;;;9.50;43.50;;;0.14;57.47;94908.06;4962606;28;20033;-51
2023/02/26 10:32:08;;;;;;;1.20;1.10;;;10.00;42.80;;;0.04;56.86;94909.59;4954439;28;20026;-49
2023/02/26 10:34:55;;;;;;;3.17;1.25;;;10.40;41.90;;;-0.22;56.33;94926.31;4953207;28;20022;-50
2023/02/26 10:38:03;;;;;;;3.47;1.08;;;10.50;40.90;;;-0.51;55.85;94928.53;4949946;28;20108;-49
2023/02/26 10:40:49;;;;;;;3.85;1.10;;;10.40;40.10;;;-0.24;56.39;94922.09;4967477;28;20713;-53
2023/02/26 10:43:44;;;;;;;5.78;1.30;;;10.20;40.40;;;-0.16;59.64;94928.88;4951065;28;20019;-50
2023/02/26 10:46:55;;;;;;;1.25;0.90;;;10.10;40.30;;;0.04;57.13;94913.00;4966016;28;20050;-54
2023/02/26 10:49:52;;;;;;;1.10;0.82;;;10.10;40.20;;;-0.38;58.93;94920.56;4965354;28;20038;-50
2023/02/26 10:52:27;;;;;;;1.83;1.10;;;10.10;39.90;;;-0.11;59.36;94929.03;4949635;28;20023;-52
2023/02/26 10:55:37;;;;;;;1.95;1.20;;;10.10;39.90;;;0.30;57.07;94924.25;4936653;28;20042;-49
2023/02/26 10:58:24;;;;;;;2.05;1.10;;;10.20;40.20;;;-0.31;58.08;94921.34;4958022;28;20041;-50
2023/02/26 11:00:55;;;;;;;2.75;1.38;;;10.10;39.80;;;-0.01;57.16;94923.31;4926426;28;21362;-51
2023/02/26 11:03:46;;;;;;;3.10;1.10;;;10.10;39.80;;;0.05;57.59;94925.09;4944954;28;20520;-49
2023/02/26 11:06:42;;;;;;;2.30;1.20;;;10.20;39.70;;;-0.21;59.36;94925.31;4937510;28;20031;-49
2023/02/26 11:09:41;;;;;;;1.60;1.17;;;10.20;39.40;;;0.22;56.10;94912.25;4939779;28;20033;-49